sensor_id;sensor_type;location;lat;lon;timestamp;pressure;altitude;pressure_sealevel;temperature;humidity
16690;BME280;8458;52.220;9.884;2023-03-23T00:01:07;99665.63;;;13.05;71.36
16690;BME280;8458;52.220;9.884;2023-03-23T00:03:37;99665.94;;;13.03;71.82
16690;BME280;8458;52.220;9.884;2023-03-23T00:06:04;99680.34;;;13.05;72.13
16690;BME280;8458;52.220;9.884;2023-03-23T00:08:32;99670.06;;;13.06;72.03
16690;BME280;8458;52.220;9.884;2023-03-23T00:10:59;99664.72;;;13.09;72.06
16690;BME280;8458;52.220;9.884;2023-03-23T00:13:27;99669.22;;;13.05;72.74
16690;BME280;8458;52.220;9.884;2023-03-23T00:15:54;99672.09;;;13.00;73.53
16690;BME280;8458;52.220;9.884;2023-03-23T00:18:22;99677.06;;;13.03;73.95
16690;BME280;8458;52.220;9.884;2023-03-23T00:20:52;99665.63;;;13.05;74.48
16690;BME280;8458;52.220;9.884;2023-03-23T00:23:20;99659.00;;;13.01;75.62
16690;BME280;8458;52.220;9.884;2023-03-23T00:25:50;99666.09;;;12.93;77.82
16690;BME280;8458;52.220;9.884;2023-03-23T00:28:18;99652.91;;;12.85;79.03
16690;BME280;8458;52.220;9.884;2023-03-23T00:30:54;99664.44;;;12.78;79.79
16690;BME280;8458;52.220;9.884;2023-03-23T00:33:22;99655.94;;;12.69;80.56
16690;BME280;8458;52.220;9.884;2023-03-23T00:35:50;99653.88;;;12.61;81.64
16690;BME280;8458;52.220;9.884;2023-03-23T00:38:18;99658.16;;;12.53;82.53
16690;BME280;8458;52.220;9.884;2023-03-23T00:40:45;99651.75;;;12.53;82.89
16690;BME280;8458;52.220;9.884;2023-03-23T00:43:12;99663.50;;;12.50;82.17
16690;BME280;8458;52.220;9.884;2023-03-23T00:45:39;99645.78;;;12.46;82.08
16690;BME280;8458;52.220;9.884;2023-03-23T00:48:05;99642.16;;;12.45;82.19
16690;BME280;8458;52.220;9.884;2023-03-23T00:50:32;99646.81;;;12.50;82.36
16690;BME280;8458;52.220;9.884;2023-03-23T00:52:59;99639.38;;;12.45;82.19
16690;BME280;8458;52.220;9.884;2023-03-23T00:55:26;99642.47;;;12.44;82.62
16690;BME280;8458;52.220;9.884;2023-03-23T00:57:55;99642.47;;;12.44;82.47
16690;BME280;8458;52.220;9.884;2023-03-23T01:00:22;99634.06;;;12.49;82.19
16690;BME280;8458;52.220;9.884;2023-03-23T01:02:49;99634.06;;;12.49;82.43
16690;BME280;8458;52.220;9.884;2023-03-23T01:05:17;99641.25;;;12.50;82.67
16690;BME280;8458;52.220;9.884;2023-03-23T01:07:43;99638.34;;;12.41;82.96
16690;BME280;8458;52.220;9.884;2023-03-23T01:10:13;99635.63;;;12.36;83.88
16690;BME280;8458;52.220;9.884;2023-03-23T01:12:43;99621.44;;;12.37;85.19
16690;BME280;8458;52.220;9.884;2023-03-23T01:15:13;99634.22;;;12.38;85.76
16690;BME280;8458;52.220;9.884;2023-03-23T01:17:41;99628.75;;;12.33;86.57
16690;BME280;8458;52.220;9.884;2023-03-23T01:20:07;99625.72;;;12.30;86.28
16690;BME280;8458;52.220;9.884;2023-03-23T01:22:35;99622.44;;;12.28;86.70
16690;BME280;8458;52.220;9.884;2023-03-23T01:25:01;99616.56;;;12.29;86.59
16690;BME280;8458;52.220;9.884;2023-03-23T01:27:29;99622.50;;;12.23;87.41
16690;BME280;8458;52.220;9.884;2023-03-23T01:29:55;99612.81;;;12.20;87.69
16690;BME280;8458;52.220;9.884;2023-03-23T01:32:22;99606.44;;;12.19;87.72
16690;BME280;8458;52.220;9.884;2023-03-23T01:34:48;99610.56;;;12.22;87.79
16690;BME280;8458;52.220;9.884;2023-03-23T01:37:15;99598.31;;;12.23;87.93
16690;BME280;8458;52.220;9.884;2023-03-23T01:39:42;99603.88;;;12.23;87.84
16690;BME280;8458;52.220;9.884;2023-03-23T01:42:09;99603.88;;;12.23;87.73
16690;BME280;8458;52.220;9.884;2023-03-23T01:47:56;99604.94;;;12.27;87.08
16690;BME280;8458;52.220;9.884;2023-03-23T01:50:25;99590.44;;;12.30;87.19
16690;BME280;8458;52.220;9.884;2023-03-23T01:52:53;99594.25;;;12.34;86.86
16690;BME280;8458;52.220;9.884;2023-03-23T01:55:22;99585.84;;;12.40;86.85
16690;BME280;8458;52.220;9.884;2023-03-23T01:57:51;99588.53;;;12.45;87.10
16690;BME280;8458;52.220;9.884;2023-03-23T02:00:18;99594.53;;;12.52;87.34
16690;BME280;8458;52.220;9.884;2023-03-23T02:02:47;99590.59;;;12.53;87.30
16690;BME280;8458;52.220;9.884;2023-03-23T02:05:19;99603.38;;;12.54;87.61
16690;BME280;8458;52.220;9.884;2023-03-23T02:07:48;99592.88;;;12.51;87.80
16690;BME280;8458;52.220;9.884;2023-03-23T02:10:16;99592.03;;;12.50;88.06
16690;BME280;8458;52.220;9.884;2023-03-23T02:12:42;99597.91;;;12.49;88.48
16690;BME280;8458;52.220;9.884;2023-03-23T02:15:10;99591.81;;;12.47;87.62
16690;BME280;8458;52.220;9.884;2023-03-23T02:17:40;99594.88;;;12.45;87.74
16690;BME280;8458;52.220;9.884;2023-03-23T02:20:21;99595.28;;;12.38;87.26
16690;BME280;8458;52.220;9.884;2023-03-23T02:25:57;99581.50;;;12.33;87.38
16690;BME280;8458;52.220;9.884;2023-03-23T02:28:53;99584.56;;;12.32;87.47
16690;BME280;8458;52.220;9.884;2023-03-23T02:31:42;99575.94;;;12.33;87.28
16690;BME280;8458;52.220;9.884;2023-03-23T02:34:13;99577.56;;;12.34;87.52
16690;BME280;8458;52.220;9.884;2023-03-23T02:36:45;99574.28;;;12.32;88.22
16690;BME280;8458;52.220;9.884;2023-03-23T02:39:19;99582.00;;;12.35;88.01
16690;BME280;8458;52.220;9.884;2023-03-23T02:41:52;99577.13;;;12.27;88.70
16690;BME280;8458;52.220;9.884;2023-03-23T02:44:22;99574.38;;;12.27;89.43
16690;BME280;8458;52.220;9.884;2023-03-23T02:46:50;99581.03;;;12.26;89.87
16690;BME280;8458;52.220;9.884;2023-03-23T02:49:20;99580.44;;;12.29;90.67
16690;BME280;8458;52.220;9.884;2023-03-23T02:51:50;99574.88;;;12.29;91.70
16690;BME280;8458;52.220;9.884;2023-03-23T02:54:18;99568.81;;;12.27;92.71
16690;BME280;8458;52.220;9.884;2023-03-23T02:56:48;99566.41;;;12.20;93.62
16690;BME280;8458;52.220;9.884;2023-03-23T02:59:16;99566.19;;;12.17;94.50
16690;BME280;8458;52.220;9.884;2023-03-23T03:01:57;99543.34;;;12.20;95.24
16690;BME280;8458;52.220;9.884;2023-03-23T03:04:27;99556.78;;;12.13;95.76
16690;BME280;8458;52.220;9.884;2023-03-23T03:07:09;99552.44;;;12.07;96.73
16690;BME280;8458;52.220;9.884;2023-03-23T03:09:46;99553.03;;;12.04;97.11
16690;BME280;8458;52.220;9.884;2023-03-23T03:12:21;99553.59;;;12.06;97.02
16690;BME280;8458;52.220;9.884;2023-03-23T03:14:54;99537.53;;;12.02;96.60
16690;BME280;8458;52.220;9.884;2023-03-23T03:17:24;99537.53;;;12.02;96.20
16690;BME280;8458;52.220;9.884;2023-03-23T03:19:56;99539.75;;;12.00;95.56
16690;BME280;8458;52.220;9.884;2023-03-23T03:22:25;99533.53;;;12.09;94.93
16690;BME280;8458;52.220;9.884;2023-03-23T03:24:55;99534.66;;;12.08;94.48
16690;BME280;8458;52.220;9.884;2023-03-23T03:27:23;99553.59;;;12.06;94.80
16690;BME280;8458;52.220;9.884;2023-03-23T03:29:54;99537.53;;;12.02;94.98
16690;BME280;8458;52.220;9.884;2023-03-23T03:32:25;99548.03;;;12.06;95.47
16690;BME280;8458;52.220;9.884;2023-03-23T03:34:58;99547.28;;;12.00;96.10
16690;BME280;8458;52.220;9.884;2023-03-23T03:37:25;99548.78;;;11.92;97.40
16690;BME280;8458;52.220;9.884;2023-03-23T03:39:51;99547.66;;;11.93;97.95
16690;BME280;8458;52.220;9.884;2023-03-23T03:42:18;99555.41;;;11.96;98.05
16690;BME280;8458;52.220;9.884;2023-03-23T03:44:45;99552.63;;;11.96;98.15
16690;BME280;8458;52.220;9.884;2023-03-23T03:47:12;99558.69;;;11.98;98.67
16690;BME280;8458;52.220;9.884;2023-03-23T03:49:38;99559.28;;;11.95;99.58
16690;BME280;8458;52.220;9.884;2023-03-23T03:52:07;99561.06;;;11.86;100.00
16690;BME280;8458;52.220;9.884;2023-03-23T03:54:33;99548.31;;;11.85;100.00
16690;BME280;8458;52.220;9.884;2023-03-23T03:57:00;99539.75;;;11.81;100.00
16690;BME280;8458;52.220;9.884;2023-03-23T03:59:26;99527.75;;;11.86;100.00
16690;BME280;8458;52.220;9.884;2023-03-23T04:01:55;99530.59;;;11.81;100.00
16690;BME280;8458;52.220;9.884;2023-03-23T04:04:22;99536.16;;;11.81;100.00
16690;BME280;8458;52.220;9.884;2023-03-23T04:06:48;99523.38;;;11.80;100.00
16690;BME280;8458;52.220;9.884;2023-03-23T04:09:16;99520.41;;;11.76;100.00
16690;BME280;8458;52.220;9.884;2023-03-23T04:11:44;99518.44;;;11.77;99.43
16690;BME280;8458;52.220;9.884;2023-03-23T04:14:11;99518.53;;;11.72;99.78
16690;BME280;8458;52.220;9.884;2023-03-23T04:16:37;99504.03;;;11.75;98.68
16690;BME280;8458;52.220;9.884;2023-03-23T04:19:04;99504.66;;;11.72;98.26
16690;BME280;8458;52.220;9.884;2023-03-23T04:21:30;99513.28;;;11.70;97.83
16690;BME280;8458;52.220;9.884;2023-03-23T04:23:57;99506.31;;;11.73;97.44
16690;BME280;8458;52.220;9.884;2023-03-23T04:26:25;99516.81;;;11.76;97.17
16690;BME280;8458;52.220;9.884;2023-03-23T04:28:53;99517.41;;;11.73;96.50
16690;BME280;8458;52.220;9.884;2023-03-23T04:31:20;99526.84;;;11.72;95.56
16690;BME280;8458;52.220;9.884;2023-03-23T04:33:49;99520.09;;;11.78;94.59
16690;BME280;8458;52.220;9.884;2023-03-23T04:36:18;99517.84;;;11.80;94.68
16690;BME280;8458;52.220;9.884;2023-03-23T04:38:45;99514.75;;;11.81;93.30
16690;BME280;8458;52.220;9.884;2023-03-23T04:41:11;99510.66;;;11.79;93.70
16690;BME280;8458;52.220;9.884;2023-03-23T04:43:39;99486.25;;;11.76;94.46
16690;BME280;8458;52.220;9.884;2023-03-23T04:46:07;99481.63;;;11.71;95.53
16690;BME280;8458;52.220;9.884;2023-03-23T04:48:35;99493.53;;;11.72;95.71
16690;BME280;8458;52.220;9.884;2023-03-23T04:51:04;99489.09;;;11.71;95.26
16690;BME280;8458;52.220;9.884;2023-03-23T04:53:31;99482.88;;;11.79;94.63
16690;BME280;8458;52.220;9.884;2023-03-23T04:55:58;99472.38;;;11.76;94.89
16690;BME280;8458;52.220;9.884;2023-03-23T04:58:26;99477.47;;;11.69;95.57
16690;BME280;8458;52.220;9.884;2023-03-23T05:00:54;99462.78;;;11.68;94.88
16690;BME280;8458;52.220;9.884;2023-03-23T05:03:21;99460.31;;;11.66;94.93
16690;BME280;8458;52.220;9.884;2023-03-23T05:05:47;99455.25;;;11.69;94.85
16690;BME280;8458;52.220;9.884;2023-03-23T05:08:17;99441.47;;;11.63;94.85
16690;BME280;8458;52.220;9.884;2023-03-23T05:10:50;99444.16;;;11.69;94.02
16690;BME280;8458;52.220;9.884;2023-03-23T05:13:16;99454.06;;;11.75;93.85
16690;BME280;8458;52.220;9.884;2023-03-23T05:15:43;99462.47;;;11.70;93.71
16690;BME280;8458;52.220;9.884;2023-03-23T05:18:10;99457.22;;;11.68;93.25
16690;BME280;8458;52.220;9.884;2023-03-23T05:20:37;99467.50;;;11.68;92.77
16690;BME280;8458;52.220;9.884;2023-03-23T05:23:04;99454.44;;;11.68;92.27
16690;BME280;8458;52.220;9.884;2023-03-23T05:25:30;99464.72;;;11.68;92.39
16690;BME280;8458;52.220;9.884;2023-03-23T05:27:57;99455.56;;;11.67;91.48
16690;BME280;8458;52.220;9.884;2023-03-23T05:30:25;99469.16;;;11.69;91.06
16690;BME280;8458;52.220;9.884;2023-03-23T05:32:53;99475.75;;;11.73;90.37
16690;BME280;8458;52.220;9.884;2023-03-23T05:35:21;99469.34;;;11.72;90.16
16690;BME280;8458;52.220;9.884;2023-03-23T05:37:47;99474.63;;;11.74;89.97
16690;BME280;8458;52.220;9.884;2023-03-23T05:40:14;99484.59;;;11.75;89.85
16690;BME280;8458;52.220;9.884;2023-03-23T05:42:41;99482.03;;;11.78;89.53
16690;BME280;8458;52.220;9.884;2023-03-23T05:45:10;99486.47;;;11.79;89.04
16690;BME280;8458;52.220;9.884;2023-03-23T05:47:38;99488.13;;;11.80;88.71
16690;BME280;8458;52.220;9.884;2023-03-23T05:50:05;99494.81;;;11.79;88.93
16690;BME280;8458;52.220;9.884;2023-03-23T05:52:35;99505.09;;;11.79;88.92
16690;BME280;8458;52.220;9.884;2023-03-23T05:55:03;99503.94;;;11.80;89.11
16690;BME280;8458;52.220;9.884;2023-03-23T05:57:30;99497.06;;;11.77;89.45
16690;BME280;8458;52.220;9.884;2023-03-23T05:59:57;99500.97;;;11.76;89.57
16690;BME280;8458;52.220;9.884;2023-03-23T06:02:25;99502.31;;;11.79;89.45
16690;BME280;8458;52.220;9.884;2023-03-23T06:04:55;99509.28;;;11.76;89.61
16690;BME280;8458;52.220;9.884;2023-03-23T06:07:22;99505.91;;;11.79;89.89
16690;BME280;8458;52.220;9.884;2023-03-23T06:09:51;99505.09;;;11.79;89.91
16690;BME280;8458;52.220;9.884;2023-03-23T06:12:17;99498.34;;;11.85;90.15
16690;BME280;8458;52.220;9.884;2023-03-23T06:14:45;99493.59;;;11.86;90.44
16690;BME280;8458;52.220;9.884;2023-03-23T06:17:12;99491.94;;;11.84;90.43
16690;BME280;8458;52.220;9.884;2023-03-23T06:19:38;99488.84;;;11.86;90.52
16690;BME280;8458;52.220;9.884;2023-03-23T06:22:04;99486.91;;;11.87;90.78
16690;BME280;8458;52.220;9.884;2023-03-23T06:24:31;99487.75;;;11.87;90.83
16690;BME280;8458;52.220;9.884;2023-03-23T06:27:00;99471.59;;;11.89;91.07
16690;BME280;8458;52.220;9.884;2023-03-23T06:29:27;99477.66;;;11.91;91.12
16690;BME280;8458;52.220;9.884;2023-03-23T06:31:56;99475.47;;;11.88;91.19
16690;BME280;8458;52.220;9.884;2023-03-23T06:34:23;99487.69;;;11.92;90.89
16690;BME280;8458;52.220;9.884;2023-03-23T06:36:50;99487.28;;;11.99;90.71
16690;BME280;8458;52.220;9.884;2023-03-23T06:39:17;99489.25;;;11.98;90.68
16690;BME280;8458;52.220;9.884;2023-03-23T06:41:43;99487.88;;;11.96;90.59
16690;BME280;8458;52.220;9.884;2023-03-23T06:44:11;99491.50;;;11.96;90.41
16690;BME280;8458;52.220;9.884;2023-03-23T06:46:38;99493.88;;;12.03;89.85
16690;BME280;8458;52.220;9.884;2023-03-23T06:49:05;99500.88;;;12.00;90.00
16690;BME280;8458;52.220;9.884;2023-03-23T06:51:31;99499.44;;;12.03;89.77
16690;BME280;8458;52.220;9.884;2023-03-23T06:53:58;99514.09;;;12.09;90.26
16690;BME280;8458;52.220;9.884;2023-03-23T06:56:24;99516.78;;;12.14;90.42
16690;BME280;8458;52.220;9.884;2023-03-23T06:58:51;99505.88;;;12.17;89.99
16690;BME280;8458;52.220;9.884;2023-03-23T07:01:19;99515.25;;;12.22;89.67
16690;BME280;8458;52.220;9.884;2023-03-23T07:03:46;99519.91;;;12.26;89.37
16690;BME280;8458;52.220;9.884;2023-03-23T07:06:12;99506.50;;;12.28;89.95
16690;BME280;8458;52.220;9.884;2023-03-23T07:08:38;99514.25;;;12.31;89.27
16690;BME280;8458;52.220;9.884;2023-03-23T07:11:05;99514.19;;;12.36;89.25
16690;BME280;8458;52.220;9.884;2023-03-23T07:13:33;99516.34;;;12.40;89.39
16690;BME280;8458;52.220;9.884;2023-03-23T07:16:00;99519.72;;;12.36;89.32
16690;BME280;8458;52.220;9.884;2023-03-23T07:18:27;99523.03;;;12.38;88.84
16690;BME280;8458;52.220;9.884;2023-03-23T07:20:54;99518.88;;;12.36;88.57
16690;BME280;8458;52.220;9.884;2023-03-23T07:23:21;99524.25;;;12.32;89.23
16690;BME280;8458;52.220;9.884;2023-03-23T07:25:47;99516.09;;;12.36;88.88
16690;BME280;8458;52.220;9.884;2023-03-23T07:28:14;99524.69;;;12.40;88.77
16690;BME280;8458;52.220;9.884;2023-03-23T07:30:40;99525.19;;;12.42;88.46
16690;BME280;8458;52.220;9.884;2023-03-23T07:33:08;99527.34;;;12.45;88.03
16690;BME280;8458;52.220;9.884;2023-03-23T07:35:37;99531.19;;;12.49;88.17
16690;BME280;8458;52.220;9.884;2023-03-23T07:38:04;99537.25;;;12.51;87.60
16690;BME280;8458;52.220;9.884;2023-03-23T07:40:32;99539.88;;;12.61;87.63
16690;BME280;8458;52.220;9.884;2023-03-23T07:43:03;99542.53;;;12.66;87.64
16690;BME280;8458;52.220;9.884;2023-03-23T07:45:30;99547.50;;;12.69;86.79
16690;BME280;8458;52.220;9.884;2023-03-23T07:47:57;99544.53;;;12.80;85.61
16690;BME280;8458;52.220;9.884;2023-03-23T07:50:23;99546.91;;;12.86;85.80
16690;BME280;8458;52.220;9.884;2023-03-23T07:52:53;99542.25;;;12.96;85.65
16690;BME280;8458;52.220;9.884;2023-03-23T07:55:20;99539.28;;;13.06;85.13
16690;BME280;8458;52.220;9.884;2023-03-23T07:57:47;99533.19;;;13.18;85.07
16690;BME280;8458;52.220;9.884;2023-03-23T08:00:16;99520.00;;;13.23;83.77
16690;BME280;8458;52.220;9.884;2023-03-23T08:02:45;99527.41;;;13.28;83.02
16690;BME280;8458;52.220;9.884;2023-03-23T08:05:11;99525.13;;;13.30;83.36
16690;BME280;8458;52.220;9.884;2023-03-23T08:07:39;99533.41;;;13.35;83.36
16690;BME280;8458;52.220;9.884;2023-03-23T08:10:09;99543.59;;;13.40;82.67
16690;BME280;8458;52.220;9.884;2023-03-23T08:12:37;99547.22;;;13.40;82.51
16690;BME280;8458;52.220;9.884;2023-03-23T08:15:05;99556.50;;;13.36;82.38
16690;BME280;8458;52.220;9.884;2023-03-23T08:17:32;99549.47;;;13.38;82.54
16690;BME280;8458;52.220;9.884;2023-03-23T08:19:59;99542.59;;;13.36;82.03
16690;BME280;8458;52.220;9.884;2023-03-23T08:22:26;99553.31;;;13.42;81.27
16690;BME280;8458;52.220;9.884;2023-03-23T08:24:54;99552.38;;;13.47;81.24
16690;BME280;8458;52.220;9.884;2023-03-23T08:27:23;99553.00;;;13.44;80.93
16690;BME280;8458;52.220;9.884;2023-03-23T08:29:49;99557.75;;;13.43;80.64
16690;BME280;8458;52.220;9.884;2023-03-23T08:32:16;99564.31;;;13.48;81.44
16690;BME280;8458;52.220;9.884;2023-03-23T08:34:42;99562.69;;;13.47;81.00
16690;BME280;8458;52.220;9.884;2023-03-23T08:37:09;99570.09;;;13.51;80.24
16690;BME280;8458;52.220;9.884;2023-03-23T08:39:35;99564.31;;;13.48;80.27
16690;BME280;8458;52.220;9.884;2023-03-23T08:42:03;99571.13;;;13.41;80.42
16690;BME280;8458;52.220;9.884;2023-03-23T08:44:31;99569.06;;;13.47;80.16
16690;BME280;8458;52.220;9.884;2023-03-23T08:46:58;99560.22;;;13.45;79.44
16690;BME280;8458;52.220;9.884;2023-03-23T08:49:24;99563.69;;;13.51;80.33
16690;BME280;8458;52.220;9.884;2023-03-23T08:51:51;99564.31;;;13.48;79.49
16690;BME280;8458;52.220;9.884;2023-03-23T08:54:18;99568.44;;;13.50;79.21
16690;BME280;8458;52.220;9.884;2023-03-23T08:56:44;99563.19;;;13.49;79.69
16690;BME280;8458;52.220;9.884;2023-03-23T08:59:10;99562.25;;;13.53;79.55
16690;BME280;8458;52.220;9.884;2023-03-23T09:01:38;99559.16;;;13.55;78.95
16690;BME280;8458;52.220;9.884;2023-03-23T09:04:05;99554.72;;;13.54;78.37
16690;BME280;8458;52.220;9.884;2023-03-23T09:06:31;99561.44;;;13.53;78.83
16690;BME280;8458;52.220;9.884;2023-03-23T09:08:59;99558.34;;;13.54;78.66
16690;BME280;8458;52.220;9.884;2023-03-23T09:11:26;99557.91;;;13.61;79.00
16690;BME280;8458;52.220;9.884;2023-03-23T09:13:53;99565.94;;;13.62;77.87
16690;BME280;8458;52.220;9.884;2023-03-23T09:16:20;99551.00;;;13.58;77.91
16690;BME280;8458;52.220;9.884;2023-03-23T09:18:48;99556.25;;;13.60;78.42
16690;BME280;8458;52.220;9.884;2023-03-23T09:21:15;99552.34;;;13.61;77.86
16690;BME280;8458;52.220;9.884;2023-03-23T09:23:41;99552.34;;;13.61;78.16
16690;BME280;8458;52.220;9.884;2023-03-23T09:26:09;99554.63;;;13.59;77.64
16690;BME280;8458;52.220;9.884;2023-03-23T09:28:36;99564.50;;;13.65;77.55
16690;BME280;8458;52.220;9.884;2023-03-23T09:31:03;99570.72;;;13.62;77.34
16690;BME280;8458;52.220;9.884;2023-03-23T09:33:30;99576.47;;;13.66;77.74
16690;BME280;8458;52.220;9.884;2023-03-23T09:36:00;99578.94;;;13.67;78.50
16690;BME280;8458;52.220;9.884;2023-03-23T09:38:27;99574.19;;;13.68;78.00
16690;BME280;8458;52.220;9.884;2023-03-23T09:41:01;99582.13;;;13.74;77.85
16690;BME280;8458;52.220;9.884;2023-03-23T09:43:39;99577.19;;;13.71;77.69
16690;BME280;8458;52.220;9.884;2023-03-23T09:46:20;99577.19;;;13.71;78.34
16690;BME280;8458;52.220;9.884;2023-03-23T09:48:51;99588.22;;;13.76;78.25
16690;BME280;8458;52.220;9.884;2023-03-23T09:51:28;99573.53;;;13.85;78.07
16690;BME280;8458;52.220;9.884;2023-03-23T09:54:01;99583.13;;;13.78;77.98
16690;BME280;8458;52.220;9.884;2023-03-23T09:56:31;99583.03;;;13.84;77.86
16690;BME280;8458;52.220;9.884;2023-03-23T09:59:00;99591.28;;;13.89;77.44
16690;BME280;8458;52.220;9.884;2023-03-23T10:01:32;99599.50;;;13.94;76.79
16690;BME280;8458;52.220;9.884;2023-03-23T10:04:06;99598.88;;;13.97;76.53
16690;BME280;8458;52.220;9.884;2023-03-23T10:06:37;99597.63;;;14.03;76.59
16690;BME280;8458;52.220;9.884;2023-03-23T10:09:05;99600.50;;;14.12;76.90
16690;BME280;8458;52.220;9.884;2023-03-23T10:11:41;99615.97;;;14.18;76.63
16690;BME280;8458;52.220;9.884;2023-03-23T10:14:20;99613.50;;;14.16;75.65
16690;BME280;8458;52.220;9.884;2023-03-23T10:16:58;99619.69;;;14.13;75.38
16690;BME280;8458;52.220;9.884;2023-03-23T10:19:29;99618.25;;;14.16;76.12
16690;BME280;8458;52.220;9.884;2023-03-23T10:22:03;99617.22;;;14.12;76.05
16690;BME280;8458;52.220;9.884;2023-03-23T10:24:34;99618.16;;;14.07;76.03
16690;BME280;8458;52.220;9.884;2023-03-23T10:27:07;99613.72;;;14.06;75.69
16690;BME280;8458;52.220;9.884;2023-03-23T10:29:41;99619.91;;;14.03;75.97
16690;BME280;8458;52.220;9.884;2023-03-23T10:32:12;99606.13;;;13.98;75.82
16690;BME280;8458;52.220;9.884;2023-03-23T10:34:42;99622.41;;;14.05;76.21
16690;BME280;8458;52.220;9.884;2023-03-23T10:37:15;99617.66;;;14.05;76.64
16690;BME280;8458;52.220;9.884;2023-03-23T10:39:47;99620.53;;;14.00;75.72
16690;BME280;8458;52.220;9.884;2023-03-23T10:42:26;99629.44;;;14.02;76.12
16690;BME280;8458;52.220;9.884;2023-03-23T10:44:53;99626.53;;;14.07;75.22
16690;BME280;8458;52.220;9.884;2023-03-23T10:47:21;99623.88;;;14.02;74.82
16690;BME280;8458;52.220;9.884;2023-03-23T10:49:51;99622.22;;;14.01;74.57
16690;BME280;8458;52.220;9.884;2023-03-23T10:52:27;99629.63;;;14.06;72.99
16690;BME280;8458;52.220;9.884;2023-03-23T10:55:00;99626.03;;;14.05;73.34
16690;BME280;8458;52.220;9.884;2023-03-23T10:57:29;99621.13;;;14.11;73.11
16690;BME280;8458;52.220;9.884;2023-03-23T11:00:01;99626.50;;;14.21;73.05
16690;BME280;8458;52.220;9.884;2023-03-23T11:02:32;99619.47;;;14.46;71.55
16690;BME280;8458;52.220;9.884;2023-03-23T11:05:03;99615.38;;;14.66;70.62
16690;BME280;8458;52.220;9.884;2023-03-23T11:07:34;99614.34;;;14.85;71.29
16690;BME280;8458;52.220;9.884;2023-03-23T11:10:16;99611.19;;;15.09;69.13
16690;BME280;8458;52.220;9.884;2023-03-23T11:12:45;99609.09;;;15.23;69.17
16690;BME280;8458;52.220;9.884;2023-03-23T11:15:23;99616.56;;;15.37;70.06
16690;BME280;8458;52.220;9.884;2023-03-23T11:17:59;99616.78;;;15.58;68.78
16690;BME280;8458;52.220;9.884;2023-03-23T11:20:27;99625.56;;;15.74;67.10
16690;BME280;8458;52.220;9.884;2023-03-23T11:22:56;99618.34;;;15.90;65.10
16690;BME280;8458;52.220;9.884;2023-03-23T11:25:23;99625.63;;;16.09;66.00
16690;BME280;8458;52.220;9.884;2023-03-23T11:27:49;99630.25;;;16.22;64.59
16690;BME280;8458;52.220;9.884;2023-03-23T11:30:22;99618.06;;;16.36;64.38
16690;BME280;8458;52.220;9.884;2023-03-23T11:32:50;99626.97;;;16.38;61.53
16690;BME280;8458;52.220;9.884;2023-03-23T11:35:20;99628.28;;;16.31;61.47
16690;BME280;8458;52.220;9.884;2023-03-23T11:37:49;99624.66;;;16.22;61.85
16690;BME280;8458;52.220;9.884;2023-03-23T11:40:21;99616.72;;;16.42;63.98
16690;BME280;8458;52.220;9.884;2023-03-23T11:42:49;99615.09;;;16.58;62.24
16690;BME280;8458;52.220;9.884;2023-03-23T11:45:31;99614.56;;;16.65;61.49
16690;BME280;8458;52.220;9.884;2023-03-23T11:48:05;99613.91;;;16.77;60.52
16690;BME280;8458;52.220;9.884;2023-03-23T11:50:35;99617.22;;;16.70;59.91
16690;BME280;8458;52.220;9.884;2023-03-23T11:53:09;99610.28;;;16.67;59.11
16690;BME280;8458;52.220;9.884;2023-03-23T11:55:53;99617.06;;;16.49;59.82
16690;BME280;8458;52.220;9.884;2023-03-23T11:58:22;99603.59;;;16.34;62.00
16690;BME280;8458;52.220;9.884;2023-03-23T12:00:57;99598.97;;;16.20;60.68
16690;BME280;8458;52.220;9.884;2023-03-23T12:03:30;99597.34;;;16.19;60.38
16690;BME280;8458;52.220;9.884;2023-03-23T12:06:05;99602.59;;;16.12;60.14
16690;BME280;8458;52.220;9.884;2023-03-23T12:08:47;99602.75;;;16.07;60.88
16690;BME280;8458;52.220;9.884;2023-03-23T12:11:23;99596.69;;;15.96;60.78
16690;BME280;8458;52.220;9.884;2023-03-23T12:14:06;99601.25;;;15.83;61.83
16690;BME280;8458;52.220;9.884;2023-03-23T12:16:44;99601.38;;;15.69;62.01
16690;BME280;8458;52.220;9.884;2023-03-23T12:19:18;99601.19;;;15.66;62.77
16690;BME280;8458;52.220;9.884;2023-03-23T12:21:55;99602.16;;;15.52;62.85
16690;BME280;8458;52.220;9.884;2023-03-23T12:24:37;99624.50;;;15.52;63.13
16690;BME280;8458;52.220;9.884;2023-03-23T12:27:12;99631.38;;;15.46;63.69
16690;BME280;8458;52.220;9.884;2023-03-23T12:29:53;99641.06;;;15.40;62.12
16690;BME280;8458;52.220;9.884;2023-03-23T12:32:32;99629.66;;;15.28;62.47
16690;BME280;8458;52.220;9.884;2023-03-23T12:35:11;99643.66;;;15.05;64.06
16690;BME280;8458;52.220;9.884;2023-03-23T12:37:50;99665.50;;;14.80;67.19
16690;BME280;8458;52.220;9.884;2023-03-23T12:40:30;99666.25;;;14.49;69.01
16690;BME280;8458;52.220;9.884;2023-03-23T12:43:05;99653.41;;;14.26;70.06
16690;BME280;8458;52.220;9.884;2023-03-23T12:46:01;99673.59;;;14.09;71.10
16690;BME280;8458;52.220;9.884;2023-03-23T12:48:33;99667.41;;;13.98;71.58
16690;BME280;8458;52.220;9.884;2023-03-23T12:51:08;99678.72;;;13.79;72.96
16690;BME280;8458;52.220;9.884;2023-03-23T12:53:40;99691.91;;;13.59;74.41
16690;BME280;8458;52.220;9.884;2023-03-23T12:56:13;99689.13;;;13.45;78.71
16690;BME280;8458;52.220;9.884;2023-03-23T12:58:44;99695.03;;;13.11;82.78
16690;BME280;8458;52.220;9.884;2023-03-23T13:01:13;99698.03;;;12.82;84.86
16690;BME280;8458;52.220;9.884;2023-03-23T13:03:49;99696.56;;;12.70;86.16
16690;BME280;8458;52.220;9.884;2023-03-23T13:06:22;99704.94;;;12.65;88.43
16690;BME280;8458;52.220;9.884;2023-03-23T13:08:54;99703.38;;;12.59;88.92
16690;BME280;8458;52.220;9.884;2023-03-23T13:11:25;99717.28;;;12.59;89.36
16690;BME280;8458;52.220;9.884;2023-03-23T13:13:58;99704.75;;;12.62;89.03
16690;BME280;8458;52.220;9.884;2023-03-23T13:16:30;99706.41;;;12.63;86.58
16690;BME280;8458;52.220;9.884;2023-03-23T13:19:06;99702.13;;;12.70;83.86
16690;BME280;8458;52.220;9.884;2023-03-23T13:21:41;99696.69;;;12.60;82.38
16690;BME280;8458;52.220;9.884;2023-03-23T13:24:13;99697.47;;;12.66;79.90
16690;BME280;8458;52.220;9.884;2023-03-23T13:26:42;99694.28;;;12.72;78.04
16690;BME280;8458;52.220;9.884;2023-03-23T13:29:13;99695.94;;;12.73;77.56